Latest Weather Observations for Davis*

IDT60801

Issued at 6:01 am EST Sunday 2 August 2015 (issued every 30 minutes, with the page automatically refreshed every 10 minutes)

About weather observations | Map of weather stations | Latest weather observations for ANT | Other Formats
Station Details ID: 300000 Name: DAVIS Lat: -68.57 Lon: 77.97 Height: 18.0 m
Data from the previous 72 hours. | See also: Recent months at Davis*
Date/Time
EST
Temp
°C
App
Temp
°C
Dew
Point
Rel
Hum
%
Delta-T
°C
Wind Press
QNH
hPa
Press
MSL
hPa
Rain
since 9 am
mm
Dir
 
Spd
km/h
Gust
km/h
Spd
kts
Gust
kts
02/06:00am -11.4 -27.0 -12.4 92 - NE 65 91 35 49 964.8 - -
02/05:30am -11.4 -26.6 -12.6 91 - NE 63 87 34 47 965.5 - -
02/05:08am -11.3 -28.2 -12.5 91 - NE 72 96 39 52 964.8 - -
02/05:04am -10.9 -28.1 -11.9 92 - NE 74 87 40 47 964.6 - -
02/05:00am -11.0 -24.5 -12.0 92 - NE 54 87 29 47 964.9 - -
02/04:54am -11.1 -23.0 -12.1 92 - NE 46 65 25 35 965.8 - -
02/04:50am -11.4 -22.8 -12.4 92 - NE 43 54 23 29 966.2 - -
02/04:31am -11.9 -28.5 -13.1 91 - NNE 70 89 38 48 965.5 - -
02/04:30am -11.9 -28.8 -13.1 91 - NNE 72 89 39 48 965.4 - -
02/04:29am -11.8 -28.4 -13.0 91 - NE 70 89 38 48 965.5 - -
02/04:28am -11.8 -28.7 -13.0 91 - NNE 72 89 39 48 965.5 - -
02/04:00am -11.7 -32.6 -12.9 91 - NE 93 120 50 65 963.4 963.7 -
02/03:30am -11.7 -33.0 -12.9 91 - NE 95 120 51 65 964.1 - -
02/03:00am -11.3 -32.8 -12.5 91 - NE 96 128 52 69 963.8 - -
02/02:30am -11.1 -34.1 -12.1 92 - NE 104 135 56 73 963.4 - -
02/02:09am -11.1 -34.1 -12.1 92 - NE 104 124 56 67 962.9 - -
02/02:00am -11.0 -30.0 -12.0 92 - NE 83 119 45 64 964.7 - -
02/01:30am -10.7 -31.9 -11.7 92 - NE 95 120 51 65 964.4 - -
02/01:00am -10.6 -32.0 -11.6 92 - NE 96 132 52 71 963.8 964.1 -
02/12:56am -10.5 -31.3 -11.5 92 - NE 93 132 50 71 963.3 - -
02/12:30am -10.5 -31.3 -11.5 92 - NE 93 120 50 65 965.9 - -
02/12:13am -10.1 -33.4 -11.0 93 - NE 106 141 57 76 963.8 - -
02/12:04am -10.0 -31.2 -10.9 93 - NE 95 119 51 64 964.9 - -
02/12:00am -10.1 -30.9 -11.1 92 - NE 93 109 50 59 965.0 - -
 
Date/Time
EST
Temp
°C
App
Temp
°C
Dew
Point
Rel
Hum
%
Delta-T
°C
Wind Press
QNH
hPa
Press
MSL
hPa
Rain
since 9 am
mm
Dir
 
Spd
km/h
Gust
km/h
Spd
kts
Gust
kts
01/11:30pm -10.1 -31.3 -11.1 92 - NE 95 119 51 64 965.6 - -
01/11:16pm -10.0 -29.6 -10.9 93 - NE 87 115 47 62 965.0 - -
01/11:00pm -9.8 -29.4 -10.8 92 - NE 87 109 47 59 967.1 - -
01/10:30pm -9.7 -28.4 -10.7 92 - NE 82 107 44 58 967.9 - -
01/10:20pm -9.6 -27.1 -10.6 92 - NE 76 119 41 64 969.3 - -
01/10:05pm -9.4 -30.5 -10.3 93 - NE 95 113 51 61 967.9 - -
01/10:00pm -9.4 -26.6 -10.5 92 - NE 74 104 40 56 969.7 970.0 -
01/09:30pm -9.0 -27.2 -9.8 94 - NE 80 124 43 67 969.5 - -
01/09:24pm -9.1 -27.4 -10.0 93 - ENE 80 124 43 67 968.8 - -
01/09:01pm -9.2 -25.4 -10.1 93 - ENE 69 106 37 57 970.4 - -
01/09:00pm -9.4 -25.2 -10.3 93 - ENE 67 85 36 46 971.1 - -
01/08:30pm -9.4 -26.2 -10.5 92 - ENE 72 91 39 49 971.6 - -
01/08:00pm -9.4 -24.8 -10.3 93 - NE 65 91 35 49 973.0 - -
01/07:51pm -9.3 -24.0 -10.2 93 - ENE 61 91 33 49 973.5 - -
01/07:30pm -9.5 -22.1 -10.4 93 - ENE 50 72 27 39 975.2 - -
01/07:00pm -9.9 -21.2 -10.9 92 - ENE 43 61 23 33 977.0 977.3 -
01/06:30pm -10.7 -21.7 -12.0 90 - ENE 41 63 22 34 978.2 - -
01/06:23pm -10.7 -21.3 -12.0 90 - NE 39 63 21 34 978.1 - -
01/06:00pm -11.1 -23.4 -12.4 90 - NE 48 59 26 32 978.6 - -
01/05:31pm -10.7 -24.1 -11.7 92 - NE 54 72 29 39 978.5 - -
01/05:30pm -10.7 -24.1 -11.7 92 - NE 54 69 29 37 978.8 - -
01/05:24pm -10.8 -22.7 -12.0 91 - NNE 46 69 25 37 979.1 - -
01/05:00pm -11.1 -21.3 -12.4 90 - NE 37 54 20 29 980.2 - -
01/04:59pm -11.0 -21.2 -12.3 90 - NE 37 54 20 29 980.2 - -
01/04:41pm -10.3 -18.8 -11.6 90 - ENE 28 35 15 19 981.1 - -
01/04:30pm -10.5 -15.4 -11.7 91 - E 9 15 5 8 981.5 - -
01/04:08pm -11.5 -20.1 -12.8 90 - NE 28 46 15 25 982.4 - -
01/04:00pm -11.3 -20.8 -12.6 90 - NE 33 46 18 25 982.6 982.9 -
01/03:30pm -11.6 -20.9 -13.0 89 - NE 32 43 17 23 983.4 - -
01/03:14pm -11.7 -21.6 -12.6 93 - NE 35 44 19 24 983.9 - -
01/03:00pm -14.7 -19.5 -16.1 89 - E 7 11 4 6 984.8 - -
01/02:30pm -15.8 -20.4 -17.3 88 - E 6 7 3 4 985.5 - -
01/02:00pm -17.6 -23.3 -19.6 84 - E 11 11 6 6 986.8 - -
01/01:30pm -16.6 -24.3 -18.5 85 - ENE 22 28 12 15 987.7 - -
01/01:20pm -16.7 -24.8 -18.8 84 - ENE 24 30 13 16 987.9 - -
01/01:00pm -17.2 -27.8 -19.1 85 - NNE 37 46 20 25 988.2 988.6 -
01/12:30pm -17.7 -25.8 -20.0 82 - NE 24 30 13 16 988.6 - -
01/12:00pm -18.2 -26.0 -20.8 80 - NNE 22 28 12 15 989.8 - -
01/11:30am -19.9 -27.2 -22.6 79 - E 19 24 10 13 990.4 - -
01/11:00am -20.5 -28.0 -23.3 78 - E 20 26 11 14 990.8 - -
01/10:30am -21.5 -28.1 -24.3 78 - ESE 15 17 8 9 991.7 - -
01/10:00am -21.8 -28.0 -24.4 79 - ESE 13 17 7 9 992.5 992.9 -
01/09:30am -22.1 -28.3 -24.5 81 - ESE 13 15 7 8 992.7 - -
01/09:00am -22.2 -28.0 -24.6 81 - ESE 11 11 6 6 992.9 - -
01/08:30am -22.5 -28.3 -24.8 81 - ESE 11 13 6 7 993.5 - -
01/08:00am -23.2 -29.4 -25.5 81 - ESE 13 13 7 7 993.9 - -
01/07:30am -25.2 -30.7 -27.8 79 - ESE 9 11 5 6 994.3 - -
01/07:00am -26.5 -32.0 -29.3 77 - ESE 9 9 5 5 994.6 995.0 -
01/06:30am -26.1 -31.1 -28.8 78 - ESE 6 7 3 4 995.1 - -
01/06:00am -27.0 -32.5 -29.8 77 - ESE 9 9 5 5 995.4 - -
01/05:30am -28.0 -33.6 -30.9 76 - ESE 9 11 5 6 995.6 - -
01/05:00am -28.1 -33.7 -31.0 76 - ESE 9 11 5 6 995.8 - -
01/04:30am -29.1 -35.4 -32.1 75 - ESE 13 15 7 8 996.1 - -
01/04:00am -28.9 -34.8 -31.9 75 - ESE 11 13 6 7 997.0 997.4 -
01/03:30am -29.2 -35.2 -32.2 75 - ESE 11 13 6 7 996.7 - -
01/03:00am -28.4 -33.6 -31.4 75 - S 7 9 4 5 997.1 - -
01/02:30am -29.8 -35.4 -32.9 74 - SSW 9 11 5 6 996.9 - -
01/02:00am -28.7 -34.3 -31.7 75 - SSW 9 11 5 6 996.6 - -
01/01:30am -28.5 -34.1 -31.5 75 - S 9 15 5 8 996.6 - -
01/01:00am -28.3 -34.6 -31.2 76 - SSE 13 15 7 8 996.8 997.2 -
01/12:30am -28.4 -34.0 -31.4 75 - S 9 13 5 7 996.7 - -
01/12:00am -27.9 -34.2 -30.7 77 - SSE 13 15 7 8 996.6 - -
 
Date/Time
EST
Temp
°C
App
Temp
°C
Dew
Point
Rel
Hum
%
Delta-T
°C
Wind Press
QNH
hPa
Press
MSL
hPa
Rain
since 9 am
mm
Dir
 
Spd
km/h
Gust
km/h
Spd
kts
Gust
kts
31/11:30pm -27.8 -33.7 -30.6 77 - S 11 13 6 7 997.0 - -
31/11:00pm -27.7 -33.6 -30.5 77 - S 11 15 6 8 997.1 - -
31/10:30pm -26.3 -33.0 -28.8 79 - SSW 15 17 8 9 997.0 - -
31/10:00pm -26.6 -32.5 -29.3 78 - S 11 15 6 8 996.9 997.3 -
31/09:30pm -27.5 -33.0 -30.4 76 - S 9 13 5 7 996.7 - -
31/09:00pm -27.7 -33.6 -30.3 78 - SSW 11 11 6 6 996.8 - -
31/08:30pm -27.9 -33.5 -30.8 76 - SSW 9 13 5 7 996.8 - -
31/08:00pm -27.0 -32.5 -29.8 77 - S 9 15 5 8 996.7 - -
31/07:30pm -27.6 -33.5 -30.5 76 - S 11 15 6 8 997.0 - -
31/07:00pm -26.6 -33.7 -29.3 78 - SSW 17 19 9 10 996.6 997.0 -
31/06:30pm -27.5 -34.2 -30.3 77 - SSW 15 17 8 9 996.4 - -
31/06:00pm -27.1 -33.0 -29.9 77 - SW 11 17 6 9 996.3 - -
31/05:30pm -26.8 -32.7 -29.6 77 - SW 11 13 6 7 996.1 - -
31/05:00pm -26.3 -33.3 -29.0 78 - SSW 17 20 9 11 995.1 - -
31/04:30pm -27.4 -33.3 -30.3 76 - SW 11 15 6 8 995.0 - -
31/04:00pm -26.5 -32.8 -29.2 78 - SW 13 15 7 8 994.7 995.1 -
31/03:30pm -26.7 -32.2 -29.4 78 - SW 9 11 5 6 994.3 - -
31/03:00pm -26.6 -31.6 -29.3 78 - SSW 6 7 3 4 994.0 - -
31/02:30pm -24.9 -30.4 -27.5 79 - SSW 9 11 5 6 993.8 - -
31/02:00pm -24.5 -30.0 -27.1 79 - S 9 11 5 6 993.9 - -
31/01:30pm -24.7 -28.5 -27.1 80 - CALM 0 6 0 3 994.0 - -
31/01:00pm -25.4 -30.0 -28.0 79 - S 4 6 2 3 993.8 994.2 -
31/12:30pm -22.7 -28.5 -24.9 82 - S 11 13 6 7 993.5 - -
31/12:00pm -23.3 -29.5 -25.6 81 - SSW 13 15 7 8 993.7 - -
31/11:30am -23.6 -29.8 -26.1 80 - SSW 13 17 7 9 993.3 - -
31/11:00am -23.0 -29.6 -25.3 81 - SSW 15 17 8 9 993.1 - -
31/10:30am -22.6 -29.6 -24.8 82 - SSW 17 19 9 10 992.9 - -
31/10:00am -22.9 -28.7 -25.2 81 - SSW 11 13 6 7 992.6 993.0 -
31/09:30am -22.4 -27.8 -24.7 81 - SSW 9 11 5 6 992.4 - -
31/09:00am -22.2 -28.0 -24.6 81 - SSW 11 13 6 7 992.3 - -
31/08:30am -22.6 -28.0 -24.8 82 - SSW 9 13 5 7 992.2 - -
31/08:00am -22.7 -28.5 -25.0 81 - S 11 13 6 7 992.1 - -
31/07:30am -22.2 -28.4 -24.4 82 - S 13 15 7 8 992.1 - -
31/07:00am -22.2 -28.4 -24.4 82 - S 13 17 7 9 992.2 992.6 -
31/06:30am -21.2 -27.7 -23.3 83 - SSW 15 17 8 9 992.2 - -
31/06:00am -20.6 -27.1 -22.7 83 - SW 15 17 8 9 992.3 - -
31/05:30am -20.3 -27.2 -22.3 84 - SW 17 19 9 10 992.3 - -
31/05:00am -21.1 -26.5 -23.2 83 - SSW 9 11 5 6 992.3 - -
31/04:30am -21.2 -27.4 -23.3 83 - S 13 15 7 8 992.2 - -
31/04:00am -21.8 -27.6 -23.9 83 - S 11 13 6 7 992.1 992.5 -
31/03:30am -21.9 -27.3 -24.1 82 - SSW 9 9 5 5 992.4 - -
31/03:00am -22.1 -25.8 -24.3 82 - CALM 0 6 0 3 992.7 - -
31/02:30am -22.5 -26.2 -24.8 81 - CALM 0 0 0 0 992.9 - -
31/02:00am -22.3 -27.4 -24.5 82 - SE 7 7 4 4 992.9 - -
31/01:30am -22.4 -27.8 -24.7 81 - SE 9 11 5 6 993.0 - -
31/01:00am -22.5 -27.9 -24.8 81 - SSE 9 11 5 6 993.5 993.9 -
31/12:30am -22.8 -28.2 -25.1 81 - SSE 9 11 5 6 993.8 - -
31/12:00am -23.1 -28.0 -25.4 81 - SSE 6 7 3 4 993.8 - -
 
Date/Time
EST
Temp
°C
App
Temp
°C
Dew
Point
Rel
Hum
%
Delta-T
°C
Wind Press
QNH
hPa
Press
MSL
hPa
Rain
since 9 am
mm
Dir
 
Spd
km/h
Gust
km/h
Spd
kts
Gust
kts
30/11:30pm -23.6 -29.1 -26.1 80 - SE 9 11 5 6 993.8 - -
30/11:00pm -23.7 -29.2 -26.2 80 - SE 9 11 5 6 994.2 - -
30/10:30pm -23.9 -29.8 -26.4 80 - ESE 11 15 6 8 994.3 - -
30/10:00pm -24.1 -29.6 -26.5 80 - ESE 9 11 5 6 994.6 995.0 -
30/09:30pm -24.2 -29.3 -26.6 80 - ESE 7 7 4 4 994.9 - -
30/09:00pm -24.3 -29.4 -26.7 80 - ESE 7 9 4 5 995.0 - -
30/08:30pm -23.7 -28.8 -26.2 80 - ESE 7 9 4 5 995.1 - -
30/08:00pm -23.1 -26.8 -25.4 81 - CALM 0 0 0 0 995.4 - -
30/07:30pm -23.0 -26.7 -25.3 81 - CALM 0 0 0 0 995.9 - -
30/07:00pm -22.8 -26.5 -25.1 81 - CALM 0 2 0 1 996.3 996.7 -
30/06:30pm -22.8 -27.9 -25.1 81 - ESE 7 7 4 4 996.7 - -
30/06:00pm -22.9 -27.8 -25.2 81 - ESE 6 6 3 3 996.9 - -
30/05:30pm -23.0 -27.9 -25.3 81 - ESE 6 6 3 3 997.3 - -
30/05:00pm -23.0 -27.9 -25.3 81 - ESE 6 7 3 4 997.8 - -
30/04:30pm -23.3 -28.8 -25.6 81 - ESE 9 11 5 6 998.1 - -
30/04:00pm -23.7 -29.6 -26.2 80 - ESE 11 13 6 7 998.4 998.7 -
30/03:30pm -24.3 -30.5 -26.7 80 - ESE 13 15 7 8 998.9 - -
30/03:00pm -24.9 -31.5 -27.5 79 - ESE 15 15 8 8 999.2 - -
30/02:30pm -25.1 -31.4 -27.7 79 - ESE 13 15 7 8 999.5 - -
30/02:00pm -25.3 -30.8 -27.9 79 - ESE 9 11 5 6 1000.1 - -
30/01:30pm -25.4 -30.9 -28.0 79 - ESE 9 11 5 6 999.8 - -
30/01:00pm -25.8 -31.3 -28.5 78 - ESE 9 11 5 6 1000.1 1000.4 -
30/12:30pm -25.8 -30.9 -28.3 79 - SE 7 9 4 5 1000.1 - -
30/12:00pm -26.9 -30.7 -29.7 77 - CALM 0 0 0 0 1000.2 - -
30/11:30am -27.0 -30.8 -29.8 77 - CALM 0 0 0 0 1000.1 - -
30/11:00am -27.1 -32.1 -29.9 77 - SE 6 6 3 3 1000.4 - -
30/10:30am -26.7 -31.7 -29.5 77 - SE 6 9 3 5 1000.4 - -
30/10:00am -26.6 -31.2 -29.4 77 - SE 4 6 2 3 1000.6 1000.9 -
30/09:30am -26.2 -31.2 -28.9 78 - SE 6 7 3 4 1001.2 - -

Other Formats:

Comma delimited format used in spreadsheet applications
http://www.bom.gov.au/fwo/IDT60803/IDT60803.89571.axf

JavaScript Object Notation format (JSON) in row-major order
http://www.bom.gov.au/fwo/IDT60803/IDT60803.89571.json